Tradition — WDC5696 — position and weather

sailwx.info

Track history (hours):
 
Tides and Currents Weather Stations Pressure Air Temp Water Temp Dewpoint Dewpoint Depression Visibility Wind Speed Wind Dir Waves Ship Positions

Tradition

Owner: Lovrovich, Tom, gig harbor, WA. More information available from US FCC via Universal Licensing System and Coast Guard Vessel Documentation Center.

Last reported at 2017-Nov-10 01:27 UTC. Time now 2017-Dec-16 07:09 UTC.
Position N 47°20' W 122°34'.
Warning: this ship's position is 36 days out of date.

Length 19 m.

Type: Fishing. MMSI: 367045150.

Date/timePositionNaut miles runAvg speedWind from/ knotsBaromVisibWave heightAir tempDewpointWater temp
2017-Nov-10 01:27N 47°20' W 122°34'3 7.0
2017-Nov-10 01:00N 47°23' W 122°33'0 0.8
2017-Nov-10 00:28N 47°23' W 122°33'0 0.8
2017-Nov-09 23:58N 47°24' W 122°33'0 0.2
2017-Nov-09 23:30N 47°24' W 122°33'0 0.2
2017-Nov-09 23:00N 47°24' W 122°33'0 0.2
2017-Nov-09 22:21N 47°24' W 122°33'0 0.3
2017-Nov-09 21:59N 47°24' W 122°33'0 0.3
2017-Nov-09 21:22N 47°24' W 122°33'0 0.3
2017-Nov-09 20:47N 47°24' W 122°33'0 0.9
2017-Nov-09 20:29N 47°23' W 122°33'1 1.9
2017-Nov-09 19:58N 47°24' W 122°32'1 1.1
2017-Nov-09 19:14N 47°24' W 122°33'0 0.6
2017-Nov-09 19:00N 47°23' W 122°33'0 0.3
2017-Nov-09 18:24N 47°24' W 122°33'0 0.3
2017-Nov-09 18:00N 47°24' W 122°33'0 0.2
2017-Nov-09 17:27N 47°24' W 122°33'0 0.4
2017-Nov-09 17:00N 47°24' W 122°33'0 0.4
2017-Nov-09 16:30N 47°24' W 122°33'0 0.3
2017-Nov-09 15:58N 47°24' W 122°33'0 0.3
2017-Nov-09 15:28N 47°24' W 122°33'0 0.3
2017-Nov-09 15:00N 47°24' W 122°33'0 0.3
2017-Nov-09 14:30N 47°23' W 122°33'0 0.0
2017-Nov-09 13:48N 47°23' W 122°33'0 0.0
2017-Nov-09 13:30N 47°23' W 122°33'0 0.0
2017-Nov-09 12:57N 47°23' W 122°33'0 0.1
2017-Nov-09 12:27N 47°23' W 122°33'0 0.0
2017-Nov-09 11:57N 47°23' W 122°33'0 0.1
2017-Nov-09 11:18N 47°23' W 122°33'0 0.0
2017-Nov-09 11:00N 47°23' W 122°33'0 0.0
2017-Nov-09 10:30N 47°23' W 122°33'0 0.0
2017-Nov-09 09:57N 47°23' W 122°33'0 0.0
2017-Nov-09 09:24N 47°23' W 122°33'0 0.0
2017-Nov-09 09:00N 47°23' W 122°33'0 0.0
2017-Nov-09 08:27N 47°23' W 122°33'0 0.1
2017-Nov-09 07:57N 47°23' W 122°33'0 0.1
2017-Nov-09 07:27N 47°23' W 122°33'0 0.1
2017-Nov-09 06:57N 47°23' W 122°33'0 0.1
2017-Nov-09 06:30N 47°23' W 122°33'0 0.0
2017-Nov-09 05:12N 47°23' W 122°33'0 0.0
2017-Nov-09 04:54N 47°23' W 122°33'0 0.0
2017-Nov-09 04:30N 47°23' W 122°33'0 0.0
2017-Nov-09 03:39N 47°23' W 122°33'0 0.0
2017-Nov-09 03:12N 47°23' W 122°33'0 0.0
2017-Nov-09 02:51N 47°23' W 122°33'0 0.0
2017-Nov-09 02:30N 47°23' W 122°33'0 0.1
2017-Nov-09 01:51N 47°23' W 122°33'0 0.0
2017-Nov-09 01:30N 47°23' W 122°33'0 0.1
2017-Nov-09 00:54N 47°23' W 122°33'0 0.1
2017-Nov-09 00:21N 47°23' W 122°33'0 0.0
2017-Nov-08 23:57N 47°23' W 122°33'0 0.1
2017-Nov-08 23:30N 47°23' W 122°33'0 0.1
2017-Nov-08 23:00N 47°23' W 122°33'0 0.1
2017-Nov-08 22:24N 47°23' W 122°33'0 0.1
2017-Nov-08 22:00N 47°23' W 122°33'0 0.0
2017-Nov-08 20:39N 47°23' W 122°33'0 0.0
2017-Nov-08 19:49N 47°23' W 122°33'0 0.0
2017-Nov-08 19:31N 47°23' W 122°33'0 0.0
2017-Nov-08 18:43N 47°23' W 122°33'0 0.0
2017-Nov-08 18:25N 47°23' W 122°33'0 0.0
2017-Nov-08 18:00N 47°23' W 122°33'0 0.0
2017-Nov-08 16:44N 47°23' W 122°33'0 1.3
2017-Nov-08 16:31N 47°24' W 122°33'1 1.4
2017-Nov-08 16:01N 47°23' W 122°32'2 4.4
2017-Nov-08 15:30N 47°21' W 122°33'1 0.0
2017-Nov-07 02:27N 47°20' W 122°34'3 7.7
2017-Nov-07 02:00N 47°23' W 122°32'0 0.1
2017-Nov-07 01:26N 47°23' W 122°33'0 0.5
2017-Nov-07 00:45N 47°23' W 122°32'1 3.5
2017-Nov-07 00:31N 47°22' W 122°32'0 0.2
2017-Nov-06 23:58N 47°22' W 122°32'0 1.0
2017-Nov-06 23:31N 47°22' W 122°33'1 1.2
2017-Nov-06 22:48N 47°21' W 122°33'0 0.9
2017-Nov-06 22:28N 47°21' W 122°33'2 3.0
2017-Nov-06 21:46N 47°23' W 122°33'0 0.7
2017-Nov-06 21:13N 47°24' W 122°33'0 0.1
2017-Nov-06 20:56N 47°24' W 122°33'0 0.4
2017-Nov-06 20:26N 47°24' W 122°33'0 0.0
2017-Nov-06 02:19N 47°23' W 122°33'0 0.0
2017-Nov-06 01:58N 47°23' W 122°33'0 0.0
2017-Nov-06 01:28N 47°23' W 122°33'0 0.0
2017-Nov-06 00:55N 47°23' W 122°33'0 0.0
2017-Nov-06 00:19N 47°23' W 122°33'0 0.1
2017-Nov-05 23:49N 47°23' W 122°33'0 0.0
2017-Nov-05 22:52N 47°23' W 122°33'0 0.0
2017-Nov-05 22:25N 47°23' W 122°33'0 0.1
2017-Nov-05 21:49N 47°23' W 122°33'0 0.1
2017-Nov-05 21:22N 47°23' W 122°33'0 0.0
2017-Nov-05 20:49N 47°23' W 122°33'0 0.1
2017-Nov-05 20:28N 47°23' W 122°33'0 0.0
2017-Nov-05 19:58N 47°23' W 122°33'0 0.1
2017-Nov-05 19:16N 47°23' W 122°33'0 0.0
2017-Nov-05 18:58N 47°23' W 122°33'0 0.0
2017-Nov-05 18:25N 47°23' W 122°33'0 0.0
2017-Nov-05 17:58N 47°23' W 122°33'0 0.0
2017-Nov-05 17:16N 47°23' W 122°33'0 0.0
2017-Nov-05 16:55N 47°23' W 122°33'0 0.1
2017-Nov-05 16:07N 47°23' W 122°33'0 0.2
2017-Nov-05 15:52N 47°23' W 122°33'1 4.2
2017-Nov-05 15:30N 47°22' W 122°32'3 5.1
2017-Nov-05 15:00N 47°20' W 122°34'  
2017-Oct-31 17:33N 47°20' W 122°34'0 9.3
2017-Oct-31 17:30N 47°20' W 122°34'4 8.6
2017-Oct-31 17:00N 47°24' W 122°32'4 8.7
2017-Oct-31 16:30N 47°28' W 122°31'3 5.7
2017-Oct-31 15:59N 47°31' W 122°30'0 0.0
2017-Oct-31 15:29N 47°31' W 122°30'0 0.1
2017-Oct-31 14:59N 47°31' W 122°30'0 0.7
2017-Oct-31 14:28N 47°31' W 122°30'2 4.2
2017-Oct-31 14:00N 47°29' W 122°30'7 8.7
2017-Oct-31 13:13N 47°23' W 122°32'2 9.0
2017-Oct-31 13:00N 47°21' W 122°33'  
Track history (hours):
 
Tides and Currents Weather Stations Pressure Air Temp Water Temp Dewpoint Dewpoint Depression Visibility Wind Speed Wind Dir Waves Ship Positions

Tradition

Owner: Lovrovich, Tom, gig harbor, WA. More information available from US FCC via Universal Licensing System and Coast Guard Vessel Documentation Center.

Last reported at 2017-Nov-10 01:27 UTC. Time now 2017-Dec-16 07:09 UTC.
Position N 47°20' W 122°34'.
Warning: this ship's position is 36 days out of date.

Length 19 m.

Type: Fishing. MMSI: 367045150.

Date/timePositionNaut miles runAvg speedWind from/ knotsBaromVisibWave heightAir tempDewpointWater temp
2017-Nov-10 01:27N 47°20' W 122°34'3 7.0
2017-Nov-10 01:00N 47°23' W 122°33'0 0.8
2017-Nov-10 00:28N 47°23' W 122°33'0 0.8
2017-Nov-09 23:58N 47°24' W 122°33'0 0.2
2017-Nov-09 23:30N 47°24' W 122°33'0 0.2
2017-Nov-09 23:00N 47°24' W 122°33'0 0.2
2017-Nov-09 22:21N 47°24' W 122°33'0 0.3
2017-Nov-09 21:59N 47°24' W 122°33'0 0.3
2017-Nov-09 21:22N 47°24' W 122°33'0 0.3
2017-Nov-09 20:47N 47°24' W 122°33'0 0.9
2017-Nov-09 20:29N 47°23' W 122°33'1 1.9
2017-Nov-09 19:58N 47°24' W 122°32'1 1.1
2017-Nov-09 19:14N 47°24' W 122°33'0 0.6
2017-Nov-09 19:00N 47°23' W 122°33'0 0.3
2017-Nov-09 18:24N 47°24' W 122°33'0 0.3
2017-Nov-09 18:00N 47°24' W 122°33'0 0.2
2017-Nov-09 17:27N 47°24' W 122°33'0 0.4
2017-Nov-09 17:00N 47°24' W 122°33'0 0.4
2017-Nov-09 16:30N 47°24' W 122°33'0 0.3
2017-Nov-09 15:58N 47°24' W 122°33'0 0.3
2017-Nov-09 15:28N 47°24' W 122°33'0 0.3
2017-Nov-09 15:00N 47°24' W 122°33'0 0.3
2017-Nov-09 14:30N 47°23' W 122°33'0 0.0
2017-Nov-09 13:48N 47°23' W 122°33'0 0.0
2017-Nov-09 13:30N 47°23' W 122°33'0 0.0
2017-Nov-09 12:57N 47°23' W 122°33'0 0.1
2017-Nov-09 12:27N 47°23' W 122°33'0 0.0
2017-Nov-09 11:57N 47°23' W 122°33'0 0.1
2017-Nov-09 11:18N 47°23' W 122°33'0 0.0
2017-Nov-09 11:00N 47°23' W 122°33'0 0.0
2017-Nov-09 10:30N 47°23' W 122°33'0 0.0
2017-Nov-09 09:57N 47°23' W 122°33'0 0.0
2017-Nov-09 09:24N 47°23' W 122°33'0 0.0
2017-Nov-09 09:00N 47°23' W 122°33'0 0.0
2017-Nov-09 08:27N 47°23' W 122°33'0 0.1
2017-Nov-09 07:57N 47°23' W 122°33'0 0.1
2017-Nov-09 07:27N 47°23' W 122°33'0 0.1
2017-Nov-09 06:57N 47°23' W 122°33'0 0.1
2017-Nov-09 06:30N 47°23' W 122°33'0 0.0
2017-Nov-09 05:12N 47°23' W 122°33'0 0.0
2017-Nov-09 04:54N 47°23' W 122°33'0 0.0
2017-Nov-09 04:30N 47°23' W 122°33'0 0.0
2017-Nov-09 03:39N 47°23' W 122°33'0 0.0
2017-Nov-09 03:12N 47°23' W 122°33'0 0.0
2017-Nov-09 02:51N 47°23' W 122°33'0 0.0
2017-Nov-09 02:30N 47°23' W 122°33'0 0.1
2017-Nov-09 01:51N 47°23' W 122°33'0 0.0
2017-Nov-09 01:30N 47°23' W 122°33'0 0.1
2017-Nov-09 00:54N 47°23' W 122°33'0 0.1
2017-Nov-09 00:21N 47°23' W 122°33'0 0.0
2017-Nov-08 23:57N 47°23' W 122°33'0 0.1
2017-Nov-08 23:30N 47°23' W 122°33'0 0.1
2017-Nov-08 23:00N 47°23' W 122°33'0 0.1
2017-Nov-08 22:24N 47°23' W 122°33'0 0.1
2017-Nov-08 22:00N 47°23' W 122°33'0 0.0
2017-Nov-08 20:39N 47°23' W 122°33'0 0.0
2017-Nov-08 19:49N 47°23' W 122°33'0 0.0
2017-Nov-08 19:31N 47°23' W 122°33'0 0.0
2017-Nov-08 18:43N 47°23' W 122°33'0 0.0
2017-Nov-08 18:25N 47°23' W 122°33'0 0.0
2017-Nov-08 18:00N 47°23' W 122°33'0 0.0
2017-Nov-08 16:44N 47°23' W 122°33'0 1.3
2017-Nov-08 16:31N 47°24' W 122°33'1 1.4
2017-Nov-08 16:01N 47°23' W 122°32'2 4.4
2017-Nov-08 15:30N 47°21' W 122°33'1 0.0
2017-Nov-07 02:27N 47°20' W 122°34'3 7.7
2017-Nov-07 02:00N 47°23' W 122°32'0 0.1
2017-Nov-07 01:26N 47°23' W 122°33'0 0.5
2017-Nov-07 00:45N 47°23' W 122°32'1 3.5
2017-Nov-07 00:31N 47°22' W 122°32'0 0.2
2017-Nov-06 23:58N 47°22' W 122°32'0 1.0
2017-Nov-06 23:31N 47°22' W 122°33'1 1.2
2017-Nov-06 22:48N 47°21' W 122°33'0 0.9
2017-Nov-06 22:28N 47°21' W 122°33'2 3.0
2017-Nov-06 21:46N 47°23' W 122°33'0 0.7
2017-Nov-06 21:13N 47°24' W 122°33'0 0.1
2017-Nov-06 20:56N 47°24' W 122°33'0 0.4
2017-Nov-06 20:26N 47°24' W 122°33'0 0.0
2017-Nov-06 02:19N 47°23' W 122°33'0 0.0
2017-Nov-06 01:58N 47°23' W 122°33'0 0.0
2017-Nov-06 01:28N 47°23' W 122°33'0 0.0
2017-Nov-06 00:55N 47°23' W 122°33'0 0.0
2017-Nov-06 00:19N 47°23' W 122°33'0 0.1
2017-Nov-05 23:49N 47°23' W 122°33'0 0.0
2017-Nov-05 22:52N 47°23' W 122°33'0 0.0
2017-Nov-05 22:25N 47°23' W 122°33'0 0.1
2017-Nov-05 21:49N 47°23' W 122°33'0 0.1
2017-Nov-05 21:22N 47°23' W 122°33'0 0.0
2017-Nov-05 20:49N 47°23' W 122°33'0 0.1
2017-Nov-05 20:28N 47°23' W 122°33'0 0.0
2017-Nov-05 19:58N 47°23' W 122°33'0 0.1
2017-Nov-05 19:16N 47°23' W 122°33'0 0.0
2017-Nov-05 18:58N 47°23' W 122°33'0 0.0
2017-Nov-05 18:25N 47°23' W 122°33'0 0.0
2017-Nov-05 17:58N 47°23' W 122°33'0 0.0
2017-Nov-05 17:16N 47°23' W 122°33'0 0.0
2017-Nov-05 16:55N 47°23' W 122°33'0 0.1
2017-Nov-05 16:07N 47°23' W 122°33'0 0.2
2017-Nov-05 15:52N 47°23' W 122°33'1 4.2
2017-Nov-05 15:30N 47°22' W 122°32'3 5.1
2017-Nov-05 15:00N 47°20' W 122°34'  
2017-Oct-31 17:33N 47°20' W 122°34'0 9.3
2017-Oct-31 17:30N 47°20' W 122°34'4 8.6
2017-Oct-31 17:00N 47°24' W 122°32'4 8.7
2017-Oct-31 16:30N 47°28' W 122°31'3 5.7
2017-Oct-31 15:59N 47°31' W 122°30'0 0.0
2017-Oct-31 15:29N 47°31' W 122°30'0 0.1
2017-Oct-31 14:59N 47°31' W 122°30'0 0.7
2017-Oct-31 14:28N 47°31' W 122°30'2 4.2
2017-Oct-31 14:00N 47°29' W 122°30'7 8.7
2017-Oct-31 13:13N 47°23' W 122°32'2 9.0
2017-Oct-31 13:00N 47°21' W 122°33'  

Dump ship's entire track history